Terminal Aerodrome Forecast
Issued by NWS Austin/San Antonio, TX

Home | Current Version | Previous Version | Text Only | Print | Product List | Glossary On
Versions: 1 2 3 4 5 6 7 8 9 10 11 12 13
664
FTUS44 KEWX 071130
TAFAUS
TAF
KAUS 071130Z 0712/0818 27004KT P6SM FEW250
     FM071600 20011KT P6SM FEW250
     FM080100 VRB03KT P6SM FEW250
     FM080600 35015KT P6SM FEW250=

USA.gov is the U.S. government's official web portal to all federal, state and local government web resources and services.